createdAt,value
2022-08-29T00:00:59.412Z,72.23
2022-08-29T00:03:26.518Z,72.91
2022-08-29T00:05:53.308Z,73.15
2022-08-29T00:08:21.586Z,73.36
2022-08-29T00:10:49.054Z,72.96
2022-08-29T00:13:16.532Z,73.25
2022-08-29T00:15:45.205Z,73.67
2022-08-29T00:18:16.513Z,73.50
2022-08-29T00:20:44.552Z,73.02
2022-08-29T00:23:12.163Z,73.20
2022-08-29T00:25:39.057Z,72.86
2022-08-29T00:28:06.377Z,72.70
2022-08-29T00:30:35.346Z,72.88
2022-08-29T00:33:02.444Z,72.96
2022-08-29T00:35:32.872Z,73.21
2022-08-29T00:38:00.849Z,73.12
2022-08-29T00:40:35.363Z,73.65
2022-08-29T00:43:03.026Z,73.50
2022-08-29T00:45:30.741Z,73.58
2022-08-29T00:48:01.280Z,73.29
2022-08-29T00:50:34.134Z,73.74
2022-08-29T00:53:03.192Z,74.08
2022-08-29T00:55:34.079Z,74.07
2022-08-29T00:58:12.192Z,73.99
2022-08-29T01:00:43.421Z,73.75
2022-08-29T01:03:10.862Z,73.70
2022-08-29T01:05:37.724Z,73.71
2022-08-29T01:08:06.157Z,73.74
2022-08-29T01:10:51.950Z,73.80
2022-08-29T01:13:18.847Z,73.76
2022-08-29T01:15:47.065Z,73.98
2022-08-29T01:18:16.112Z,73.70
2022-08-29T01:20:52.173Z,73.94
2022-08-29T01:23:46.660Z,73.92
2022-08-29T01:26:14.010Z,74.11
2022-08-29T01:28:47.239Z,73.75
2022-08-29T01:31:37.293Z,73.52
2022-08-29T01:34:07.598Z,73.52
2022-08-29T01:36:57.478Z,73.16
2022-08-29T01:39:28.325Z,73.44
2022-08-29T01:41:57.132Z,73.62
2022-08-29T01:44:26.352Z,73.69
2022-08-29T01:47:02.199Z,73.94
2022-08-29T01:49:31.691Z,73.85
2022-08-29T01:51:58.479Z,73.59
2022-08-29T01:54:25.479Z,73.55
2022-08-29T01:56:53.619Z,73.94
2022-08-29T01:59:23.768Z,73.70
2022-08-29T02:01:59.709Z,73.88
2022-08-29T02:04:27.411Z,73.57
2022-08-29T02:06:55.681Z,73.37
2022-08-29T02:09:23.995Z,73.41
2022-08-29T02:11:52.544Z,73.57
2022-08-29T02:14:19.941Z,73.66
2022-08-29T02:16:48.032Z,73.50
2022-08-29T02:19:15.707Z,73.37
2022-08-29T02:21:44.223Z,73.40
2022-08-29T02:24:25.055Z,72.70
2022-08-29T02:26:54.530Z,72.83
2022-08-29T02:29:21.996Z,72.70
2022-08-29T02:31:48.892Z,72.33
2022-08-29T02:34:16.332Z,72.31
2022-08-29T02:36:44.015Z,72.19
2022-08-29T02:39:12.368Z,71.98
2022-08-29T02:41:39.553Z,72.07
2022-08-29T02:44:09.050Z,72.38
2022-08-29T02:46:37.414Z,72.39
2022-08-29T02:49:04.305Z,72.20
2022-08-29T02:51:32.669Z,72.47
2022-08-29T02:54:00.840Z,72.54
2022-08-29T02:56:29.279Z,71.98
2022-08-29T02:58:56.124Z,72.21
2022-08-29T03:01:24.045Z,72.05
2022-08-29T03:03:51.110Z,71.78
2022-08-29T03:06:19.782Z,71.51
2022-08-29T03:08:47.119Z,71.49
2022-08-29T03:11:14.169Z,71.54
2022-08-29T03:13:44.107Z,71.69
2022-08-29T03:16:12.042Z,71.72
2022-08-29T03:18:39.655Z,71.48
2022-08-29T03:21:14.689Z,71.36
2022-08-29T03:23:41.494Z,71.71
2022-08-29T03:26:08.222Z,71.56
2022-08-29T03:28:35.105Z,71.98
2022-08-29T03:31:01.930Z,72.05
2022-08-29T03:33:28.739Z,71.56
2022-08-29T03:35:55.496Z,71.64
2022-08-29T03:38:22.834Z,71.68
2022-08-29T03:40:49.642Z,72.00
2022-08-29T03:43:16.418Z,71.92
2022-08-29T03:45:43.215Z,71.88
2022-08-29T03:48:10.217Z,71.92
2022-08-29T03:50:36.942Z,72.20
2022-08-29T03:53:03.971Z,72.17
2022-08-29T03:55:30.708Z,72.09
2022-08-29T03:57:57.535Z,72.10
2022-08-29T04:00:24.635Z,72.35
2022-08-29T04:02:55.361Z,72.17
2022-08-29T04:05:22.500Z,72.20
2022-08-29T04:07:50.727Z,71.77
2022-08-29T04:10:22.435Z,71.85
2022-08-29T04:12:54.462Z,72.12
2022-08-29T04:15:22.358Z,72.38
2022-08-29T04:17:53.036Z,72.93
2022-08-29T04:20:24.987Z,73.66
2022-08-29T04:22:54.516Z,73.92
2022-08-29T04:25:22.816Z,74.72
2022-08-29T04:27:49.770Z,74.94
2022-08-29T04:30:20.926Z,74.94
2022-08-29T04:32:47.703Z,74.52
2022-08-29T04:35:15.742Z,74.47
2022-08-29T04:37:43.543Z,73.61
2022-08-29T04:40:14.958Z,73.62
2022-08-29T04:42:42.181Z,73.88
2022-08-29T04:45:12.412Z,73.02
2022-08-29T04:47:40.538Z,72.71
2022-08-29T04:50:09.636Z,72.14
2022-08-29T04:52:37.095Z,72.04
2022-08-29T04:55:06.350Z,71.93
2022-08-29T04:57:35.060Z,71.59
2022-08-29T05:00:04.645Z,71.95
2022-08-29T05:02:31.574Z,71.31
2022-08-29T05:04:58.396Z,70.88
2022-08-29T05:07:26.787Z,70.95
2022-08-29T05:10:06.364Z,70.68
2022-08-29T05:12:33.990Z,70.52
2022-08-29T05:15:01.090Z,70.44
2022-08-29T05:17:28.229Z,69.83
2022-08-29T05:19:55.047Z,69.57
2022-08-29T05:22:22.304Z,69.71
2022-08-29T05:24:50.179Z,69.46
2022-08-29T05:27:22.117Z,68.70
2022-08-29T05:29:54.063Z,67.96
2022-08-29T05:32:21.504Z,67.38
2022-08-29T05:34:49.670Z,65.92
2022-08-29T05:37:19.527Z,65.50
2022-08-29T05:39:47.535Z,61.66
2022-08-29T05:42:17.093Z,59.36
2022-08-29T05:44:44.250Z,58.35
2022-08-29T05:47:13.528Z,56.26
2022-08-29T05:49:42.152Z,54.68
2022-08-29T05:52:10.488Z,52.41
2022-08-29T05:54:39.794Z,54.07
2022-08-29T05:57:07.966Z,52.15
2022-08-29T05:59:35.577Z,54.95
2022-08-29T06:02:03.090Z,55.89
2022-08-29T06:04:30.124Z,57.05
2022-08-29T06:06:57.020Z,58.24
2022-08-29T06:09:23.830Z,59.19
2022-08-29T06:11:53.317Z,60.28
2022-08-29T06:14:20.953Z,60.45
2022-08-29T06:16:47.714Z,58.96
2022-08-29T06:19:14.705Z,58.62
2022-08-29T06:21:42.310Z,58.22
2022-08-29T06:24:09.707Z,56.21
2022-08-29T06:26:36.886Z,50.12
2022-08-29T06:29:06.632Z,49.04
2022-08-29T06:31:33.940Z,48.24
2022-08-29T06:34:02.925Z,51.01
2022-08-29T06:36:30.713Z,50.24
2022-08-29T06:38:59.167Z,53.07
2022-08-29T06:41:27.034Z,49.79
2022-08-29T06:43:58.286Z,46.80
2022-08-29T06:46:30.618Z,48.08
2022-08-29T06:49:00.979Z,47.40
2022-08-29T06:51:32.952Z,47.08
2022-08-29T06:54:01.547Z,45.69
2022-08-29T06:56:29.744Z,44.75
2022-08-29T06:58:56.634Z,47.07
2022-08-29T07:01:24.317Z,48.07
2022-08-29T07:03:54.501Z,47.67
2022-08-29T07:06:21.535Z,46.97
2022-08-29T07:08:55.079Z,46.60
2022-08-29T07:11:24.463Z,45.99
2022-08-29T07:13:51.425Z,41.28
2022-08-29T07:16:19.187Z,39.11
2022-08-29T07:18:46.694Z,39.25
2022-08-29T07:21:20.327Z,42.51
2022-08-29T07:23:48.779Z,41.89
2022-08-29T07:26:20.726Z,44.63
2022-08-29T07:28:49.051Z,44.61
2022-08-29T07:31:16.532Z,46.05
2022-08-29T07:33:43.465Z,47.07
2022-08-29T07:36:10.755Z,46.50
2022-08-29T07:38:38.402Z,45.04
2022-08-29T07:41:11.219Z,44.65
2022-08-29T07:43:37.991Z,43.96
2022-08-29T07:46:14.723Z,45.63
2022-08-29T07:48:43.082Z,45.78
2022-08-29T07:51:13.841Z,46.55
2022-08-29T07:53:41.419Z,43.37
2022-08-29T07:56:12.184Z,42.43
2022-08-29T07:58:39.315Z,41.92
2022-08-29T08:01:06.733Z,40.71
2022-08-29T08:03:35.498Z,42.68
2022-08-29T08:06:03.927Z,43.09
2022-08-29T08:08:34.004Z,42.71
2022-08-29T08:11:03.797Z,43.47
2022-08-29T08:13:30.707Z,45.68
2022-08-29T08:15:57.916Z,45.97
2022-08-29T08:18:25.829Z,46.35
2022-08-29T08:20:52.623Z,44.88
2022-08-29T08:23:19.888Z,46.56
2022-08-29T08:25:46.879Z,47.19
2022-08-29T08:28:14.585Z,46.23
2022-08-29T08:30:42.974Z,48.00
2022-08-29T08:33:10.099Z,47.84
2022-08-29T08:35:41.978Z,48.40
2022-08-29T08:38:09.235Z,48.33
2022-08-29T08:40:42.847Z,49.13
2022-08-29T08:43:13.515Z,48.32
2022-08-29T08:45:45.409Z,49.05
2022-08-29T08:48:28.560Z,48.76
2022-08-29T08:51:04.308Z,47.76
2022-08-29T08:53:39.623Z,47.02
2022-08-29T08:56:35.712Z,46.85
2022-08-29T08:59:16.396Z,47.62
2022-08-29T09:01:56.003Z,46.34
2022-08-29T09:04:53.097Z,47.80
2022-08-29T09:07:51.535Z,47.75
2022-08-29T09:10:30.442Z,47.12
2022-08-29T09:12:59.954Z,45.54
2022-08-29T09:15:40.475Z,46.95
2022-08-29T09:18:32.939Z,47.10
2022-08-29T09:21:39.442Z,46.43
2022-08-29T09:24:08.915Z,46.42
2022-08-29T09:26:35.862Z,46.09
2022-08-29T09:29:03.103Z,45.21
2022-08-29T09:31:33.023Z,44.56
2022-08-29T09:34:12.384Z,44.59
2022-08-29T09:36:51.208Z,43.94
2022-08-29T09:39:31.378Z,46.14
2022-08-29T09:42:11.780Z,46.27
2022-08-29T09:44:39.488Z,46.13
2022-08-29T09:47:14.645Z,45.47
2022-08-29T09:50:00.288Z,44.68
2022-08-29T09:52:27.566Z,45.63
2022-08-29T09:54:54.736Z,47.30
2022-08-29T09:57:26.002Z,47.21
2022-08-29T10:00:13.737Z,46.71
2022-08-29T10:02:46.486Z,45.35
2022-08-29T10:05:41.440Z,45.02
2022-08-29T10:08:25.987Z,44.71
2022-08-29T10:10:56.914Z,45.04
2022-08-29T10:13:34.233Z,43.80
2022-08-29T10:16:07.511Z,44.53
2022-08-29T10:18:59.301Z,43.86
2022-08-29T10:22:01.349Z,43.35
2022-08-29T10:25:06.312Z,42.56
2022-08-29T10:28:09.559Z,44.20
2022-08-29T10:30:41.849Z,44.41
2022-08-29T10:33:15.584Z,43.27
2022-08-29T10:36:10.135Z,41.96
2022-08-29T10:38:48.700Z,43.89
2022-08-29T10:41:27.686Z,44.09
2022-08-29T10:44:25.908Z,45.86
2022-08-29T10:47:10.971Z,46.29
2022-08-29T10:49:52.718Z,43.91
2022-08-29T10:52:31.261Z,44.84
2022-08-29T10:55:25.773Z,42.56
2022-08-29T10:58:05.421Z,43.06
2022-08-29T11:00:39.781Z,42.39
2022-08-29T11:03:43.877Z,41.71
2022-08-29T11:06:27.096Z,40.90
2022-08-29T11:09:08.799Z,40.82
2022-08-29T11:11:37.683Z,40.71
2022-08-29T11:14:24.435Z,41.42
2022-08-29T11:16:52.807Z,39.88
2022-08-29T11:19:47.705Z,40.82
2022-08-29T11:22:21.843Z,41.52
2022-08-29T11:25:01.224Z,41.55
2022-08-29T11:27:35.163Z,39.22
2022-08-29T11:30:12.769Z,41.68
2022-08-29T11:32:55.123Z,41.43
2022-08-29T11:35:44.537Z,41.90
2022-08-29T11:38:29.564Z,40.95
2022-08-29T11:41:27.705Z,39.82
2022-08-29T11:44:06.931Z,39.11
2022-08-29T11:46:48.532Z,39.35
2022-08-29T11:49:52.113Z,40.12
2022-08-29T11:52:24.349Z,40.43
2022-08-29T11:55:21.949Z,38.25
2022-08-29T11:57:51.947Z,38.79
2022-08-29T12:00:32.427Z,38.08
2022-08-29T12:03:00.024Z,38.23
2022-08-29T12:05:29.891Z,37.73
2022-08-29T12:08:36.133Z,37.93
2022-08-29T12:11:02.516Z,38.12
2022-08-29T12:13:47.670Z,37.23
2022-08-29T12:16:46.398Z,36.08
2022-08-29T12:19:53.261Z,36.38
2022-08-29T12:22:48.077Z,37.36
2022-08-29T12:25:27.058Z,36.80
2022-08-29T12:28:18.011Z,36.16
2022-08-29T12:30:52.947Z,36.86
2022-08-29T12:34:01.305Z,36.95
2022-08-29T12:36:31.554Z,37.04
2022-08-29T12:39:19.696Z,36.86
2022-08-29T12:42:01.325Z,37.83
2022-08-29T12:44:37.079Z,36.70
2022-08-29T12:47:14.146Z,37.20
2022-08-29T12:49:41.390Z,37.04
2022-08-29T12:52:25.377Z,36.08
2022-08-29T12:54:56.294Z,36.59
2022-08-29T12:57:36.188Z,37.59
2022-08-29T13:00:11.485Z,36.51
2022-08-29T13:02:39.001Z,37.12
2022-08-29T13:05:20.027Z,35.96
2022-08-29T13:08:27.421Z,35.13
2022-08-29T13:11:00.224Z,35.82
2022-08-29T13:13:28.082Z,35.71
2022-08-29T13:15:59.025Z,36.45
2022-08-29T13:18:25.967Z,35.51
2022-08-29T13:21:04.093Z,36.21
2022-08-29T13:23:37.830Z,36.13
2022-08-29T13:26:21.515Z,35.64
2022-08-29T13:28:52.959Z,35.67
2022-08-29T13:31:21.425Z,34.58
2022-08-29T13:33:51.314Z,33.82
2022-08-29T13:36:27.157Z,35.70
2022-08-29T13:39:17.086Z,36.11
2022-08-29T13:41:43.846Z,36.22
2022-08-29T13:44:48.992Z,35.54
2022-08-29T13:47:31.680Z,35.40
2022-08-29T13:50:01.975Z,36.35
2022-08-29T13:52:31.578Z,36.38
2022-08-29T13:54:59.389Z,36.61
2022-08-29T13:57:29.322Z,36.11
2022-08-29T13:59:58.091Z,36.49
2022-08-29T14:02:48.651Z,36.78
2022-08-29T14:05:18.387Z,36.38
2022-08-29T14:07:46.609Z,36.66
2022-08-29T14:10:17.399Z,35.47
2022-08-29T14:12:44.639Z,35.98
2022-08-29T14:15:18.038Z,36.33
2022-08-29T14:17:46.955Z,35.98
2022-08-29T14:20:15.610Z,35.33
2022-08-29T14:22:43.560Z,36.12
2022-08-29T14:25:12.245Z,36.89
2022-08-29T14:27:39.964Z,36.54
2022-08-29T14:30:09.542Z,36.25
2022-08-29T14:32:36.832Z,36.41
2022-08-29T14:35:05.100Z,36.17
2022-08-29T14:37:33.147Z,36.28
2022-08-29T14:40:00.145Z,35.95
2022-08-29T14:42:27.339Z,35.28
2022-08-29T14:44:54.240Z,36.29
2022-08-29T14:47:21.009Z,37.11
2022-08-29T14:49:47.746Z,36.59
2022-08-29T14:52:15.287Z,36.90
2022-08-29T14:54:43.371Z,37.52
2022-08-29T14:57:11.120Z,36.92
2022-08-29T14:59:39.421Z,36.98
2022-08-29T15:02:10.154Z,37.14
2022-08-29T15:04:37.919Z,36.54
2022-08-29T15:07:12.648Z,37.19
2022-08-29T15:09:41.932Z,37.16
2022-08-29T15:12:09.453Z,36.42
2022-08-29T15:14:36.542Z,36.13
2022-08-29T15:17:05.244Z,37.01
2022-08-29T15:22:20.861Z,36.86
2022-08-29T15:24:50.231Z,36.96
2022-08-29T15:27:23.628Z,37.33
2022-08-29T15:29:53.265Z,36.84
2022-08-29T15:32:20.282Z,36.93
2022-08-29T15:34:47.163Z,36.99
2022-08-29T15:37:15.134Z,37.65
2022-08-29T15:39:42.400Z,37.49
2022-08-29T15:42:11.903Z,37.38
2022-08-29T15:44:44.501Z,37.67
2022-08-29T15:47:11.972Z,36.94
2022-08-29T15:49:39.666Z,37.48
2022-08-29T15:52:06.960Z,37.14
2022-08-29T15:54:33.846Z,37.67
2022-08-29T15:57:00.656Z,37.75
2022-08-29T15:59:54.329Z,37.45
2022-08-29T16:02:15.318Z,37.95
2022-08-29T16:04:47.690Z,37.45
2022-08-29T16:07:16.923Z,38.20
2022-08-29T16:09:44.882Z,37.83
2022-08-29T16:12:12.709Z,38.18
2022-08-29T16:17:32.249Z,37.50
2022-08-29T16:20:00.929Z,38.47
2022-08-29T16:22:29.118Z,38.89
2022-08-29T16:24:56.094Z,38.78
2022-08-29T16:27:24.235Z,38.79
2022-08-29T16:29:52.866Z,38.66
2022-08-29T16:32:20.201Z,39.00
2022-08-29T16:34:47.096Z,39.10
2022-08-29T16:37:13.833Z,38.47
2022-08-29T16:39:40.903Z,37.96
2022-08-29T16:42:07.940Z,39.06
2022-08-29T16:44:34.759Z,39.06
2022-08-29T16:47:02.077Z,39.15
2022-08-29T16:49:28.814Z,39.33
2022-08-29T16:51:55.870Z,39.15
2022-08-29T16:54:22.639Z,39.98
2022-08-29T16:56:49.421Z,40.02
2022-08-29T16:59:16.449Z,40.79
2022-08-29T17:01:46.574Z,41.32
2022-08-29T17:04:33.726Z,41.43
2022-08-29T17:07:01.285Z,42.69
2022-08-29T17:09:28.121Z,43.58
2022-08-29T17:11:56.173Z,43.59
2022-08-29T17:14:24.564Z,42.90
2022-08-29T17:16:53.417Z,43.28
2022-08-29T17:19:21.577Z,43.45
2022-08-29T17:21:49.191Z,43.96
2022-08-29T17:24:16.395Z,44.45
2022-08-29T17:26:45.647Z,44.18
2022-08-29T17:29:13.127Z,44.27
2022-08-29T17:31:40.708Z,45.16
2022-08-29T17:34:09.251Z,45.15
2022-08-29T17:36:37.110Z,45.73
2022-08-29T17:39:05.578Z,46.23
2022-08-29T17:41:34.911Z,46.37
2022-08-29T17:44:02.085Z,46.64
2022-08-29T17:46:29.718Z,47.56
2022-08-29T17:48:56.737Z,48.08
2022-08-29T17:51:23.573Z,47.95
2022-08-29T17:53:51.258Z,49.12
2022-08-29T17:56:21.171Z,48.91
2022-08-29T17:58:48.249Z,48.42
2022-08-29T18:01:16.943Z,48.93
2022-08-29T18:03:45.483Z,49.24
2022-08-29T18:06:14.581Z,49.75
2022-08-29T18:08:42.181Z,49.59
2022-08-29T18:11:15.687Z,49.77
2022-08-29T18:13:42.669Z,49.72
2022-08-29T18:16:10.555Z,50.59
2022-08-29T18:18:38.630Z,50.78
2022-08-29T18:21:05.938Z,52.33
2022-08-29T18:23:33.572Z,52.23
2022-08-29T18:26:01.168Z,52.56
2022-08-29T18:28:28.175Z,52.76
2022-08-29T18:30:55.838Z,52.97
2022-08-29T18:33:23.195Z,52.96
2022-08-29T18:35:51.924Z,52.82
2022-08-29T18:38:19.486Z,52.86
2022-08-29T18:40:47.235Z,52.99
2022-08-29T18:43:18.411Z,53.25
2022-08-29T18:45:45.588Z,53.75
2022-08-29T18:48:12.387Z,53.77
2022-08-29T18:50:39.326Z,54.28
2022-08-29T18:53:15.279Z,54.71
2022-08-29T18:55:50.521Z,54.88
2022-08-29T18:58:21.366Z,55.29
2022-08-29T19:00:48.614Z,55.19
2022-08-29T19:03:16.002Z,54.78
2022-08-29T19:05:49.713Z,55.20
2022-08-29T19:08:18.294Z,55.29
2022-08-29T19:10:45.947Z,55.28
2022-08-29T19:13:14.304Z,55.62
2022-08-29T19:15:42.233Z,55.63
2022-08-29T19:18:09.959Z,55.77
2022-08-29T19:20:55.137Z,55.82
2022-08-29T19:23:22.507Z,55.95
2022-08-29T19:25:49.995Z,55.94
2022-08-29T19:28:19.837Z,55.73
2022-08-29T19:30:48.678Z,56.32
2022-08-29T19:33:18.349Z,56.15
2022-08-29T19:35:49.025Z,56.82
2022-08-29T19:38:16.452Z,56.93
2022-08-29T19:40:43.880Z,57.09
2022-08-29T19:43:13.963Z,57.51
2022-08-29T19:45:42.488Z,57.47
2022-08-29T19:48:14.778Z,57.85
2022-08-29T19:50:47.483Z,58.12
2022-08-29T19:53:17.226Z,58.43
2022-08-29T19:55:55.142Z,58.14
2022-08-29T19:58:22.918Z,58.80
2022-08-29T20:01:04.205Z,58.87
2022-08-29T20:03:37.737Z,59.11
2022-08-29T20:06:07.546Z,59.07
2022-08-29T20:08:36.996Z,59.09
2022-08-29T20:11:04.631Z,59.75
2022-08-29T20:13:35.778Z,60.04
2022-08-29T20:16:03.324Z,60.31
2022-08-29T20:18:30.127Z,60.20
2022-08-29T20:20:57.026Z,60.67
2022-08-29T20:23:23.954Z,60.72
2022-08-29T20:25:50.752Z,61.14
2022-08-29T20:28:17.652Z,61.37
2022-08-29T20:30:44.899Z,61.79
2022-08-29T20:33:12.450Z,61.95
2022-08-29T20:35:57.873Z,62.92
2022-08-29T20:38:25.010Z,63.38
2022-08-29T20:40:52.215Z,63.50
2022-08-29T20:43:19.945Z,63.33
2022-08-29T20:45:47.213Z,63.45
2022-08-29T20:48:14.270Z,63.34
2022-08-29T20:50:41.663Z,62.87
2022-08-29T20:53:08.967Z,62.89
2022-08-29T20:55:40.517Z,63.19
2022-08-29T20:58:07.523Z,63.50
2022-08-29T21:00:34.420Z,63.74
2022-08-29T21:03:19.964Z,63.65
2022-08-29T21:05:46.751Z,62.90
2022-08-29T21:08:17.804Z,62.13
2022-08-29T21:10:46.218Z,61.75
2022-08-29T21:13:14.161Z,61.67
2022-08-29T21:15:42.040Z,61.46
2022-08-29T21:18:10.421Z,61.08
2022-08-29T21:20:41.339Z,61.23
2022-08-29T21:23:22.384Z,61.28
2022-08-29T21:25:57.158Z,61.43
2022-08-29T21:28:24.926Z,61.15
2022-08-29T21:30:52.844Z,60.97
2022-08-29T21:33:20.212Z,61.03
2022-08-29T21:35:49.988Z,60.76
2022-08-29T21:38:17.747Z,61.10
2022-08-29T21:40:50.469Z,60.95
2022-08-29T21:43:21.639Z,60.75
2022-08-29T21:45:48.857Z,60.86
2022-08-29T21:48:15.626Z,60.80
2022-08-29T21:50:43.195Z,60.21
2022-08-29T21:53:14.875Z,59.92
2022-08-29T21:55:42.043Z,59.69
2022-08-29T21:58:08.788Z,59.48
2022-08-29T22:00:36.947Z,59.42
2022-08-29T22:03:06.369Z,59.49
2022-08-29T22:05:33.515Z,59.67
2022-08-29T22:08:03.242Z,59.58
2022-08-29T22:10:34.106Z,59.23
2022-08-29T22:13:02.173Z,58.79
2022-08-29T22:15:47.595Z,59.09
2022-08-29T22:18:15.232Z,58.96
2022-08-29T22:20:43.690Z,59.25
2022-08-29T22:23:10.841Z,59.88
2022-08-29T22:25:37.732Z,59.65
2022-08-29T22:28:05.391Z,59.87
2022-08-29T22:30:33.154Z,60.55
2022-08-29T22:33:01.185Z,61.02
2022-08-29T22:35:28.880Z,61.02
2022-08-29T22:37:55.742Z,61.07
2022-08-29T22:40:22.955Z,61.15
2022-08-29T22:42:50.143Z,62.04
2022-08-29T22:45:18.317Z,62.42
2022-08-29T22:47:46.843Z,62.47
2022-08-29T22:50:17.623Z,62.80
2022-08-29T22:52:45.314Z,62.99
2022-08-29T22:57:51.808Z,64.09
2022-08-29T23:00:21.291Z,64.44
2022-08-29T23:02:49.090Z,64.79
2022-08-29T23:05:16.861Z,64.72
2022-08-29T23:07:43.908Z,65.17
2022-08-29T23:10:11.855Z,65.48
2022-08-29T23:12:39.014Z,64.98
2022-08-29T23:15:14.320Z,65.57
2022-08-29T23:17:41.499Z,65.95
2022-08-29T23:20:11.483Z,65.88
2022-08-29T23:22:39.483Z,66.16
2022-08-29T23:25:10.885Z,66.15
2022-08-29T23:27:38.138Z,66.38
2022-08-29T23:30:08.235Z,66.85
2022-08-29T23:32:35.048Z,66.81
2022-08-29T23:35:03.621Z,67.31
2022-08-29T23:37:30.434Z,67.33
2022-08-29T23:39:57.459Z,67.33
2022-08-29T23:42:24.825Z,67.31
2022-08-29T23:44:51.574Z,67.35
2022-08-29T23:47:18.548Z,67.58
2022-08-29T23:49:45.478Z,67.45
2022-08-29T23:52:13.450Z,67.55
2022-08-29T23:54:40.295Z,67.53
2022-08-29T23:57:07.103Z,67.88
2022-08-29T23:59:53.378Z,68.03
